Time;durP1;ratioP1;P1;durP2;ratioP2;P2;SDS_P1;SDS_P2;PMS_P1;PMS_P2;Temp;Humidity;BMP_temperature;BMP_pressure;BME280_temperature;BME280_humidity;BME280_pressure;Samples;Min_cycle;Max_cycle;Signal;HPM_P1;HPM_P2
2021/05/26 00:02:11;;;;;;;1.70;0.50;;;9.10;92.60;;;;;;4809969;29;20067;-85
2021/05/26 00:04:47;;;;;;;2.95;0.60;;;9.10;92.80;;;;;;4783761;29;20062;-85
2021/05/26 00:07:17;;;;;;;1.60;0.60;;;9.10;93.00;;;;;;4817479;29;20051;-85
2021/05/26 00:09:48;;;;;;;2.08;0.70;;;9.10;92.90;;;;;;4809413;29;20054;-86
2021/05/26 00:12:18;;;;;;;1.00;0.38;;;9.10;92.90;;;;;;4801338;29;20135;-84
2021/05/26 00:14:46;;;;;;;1.40;0.77;;;9.10;93.10;;;;;;4801914;29;20071;-85
2021/05/26 00:17:17;;;;;;;1.13;0.50;;;9.10;92.00;;;;;;4802647;29;20051;-84
2021/05/26 00:19:44;;;;;;;1.88;0.50;;;9.00;92.20;;;;;;4781237;29;20316;-85
2021/05/26 00:22:11;;;;;;;2.30;0.60;;;8.90;92.50;;;;;;4802702;29;20075;-86
2021/05/26 00:24:40;;;;;;;1.27;0.80;;;8.90;92.50;;;;;;4801588;29;20056;-84
2021/05/26 00:27:07;;;;;;;2.75;0.63;;;8.90;92.70;;;;;;4810640;29;20063;-87
2021/05/26 00:29:34;;;;;;;1.27;0.45;;;8.80;92.50;;;;;;4804382;29;20050;-85
2021/05/26 00:32:03;;;;;;;1.55;0.50;;;8.80;92.60;;;;;;4796157;29;20062;-85
2021/05/26 00:34:31;;;;;;;2.10;0.50;;;8.80;92.40;;;;;;4801079;29;20054;-84
2021/05/26 00:37:08;;;;;;;4.35;0.70;;;8.70;92.60;;;;;;4803132;29;20055;-84
2021/05/26 00:39:35;;;;;;;0.82;0.40;;;8.60;92.80;;;;;;4819310;29;20118;-85
2021/05/26 00:42:10;;;;;;;2.20;0.63;;;8.40;92.90;;;;;;4806005;29;20355;-84
2021/05/26 00:44:41;;;;;;;1.45;0.50;;;8.30;93.00;;;;;;4808217;29;20109;-85
2021/05/26 00:47:08;;;;;;;1.92;0.47;;;8.20;93.20;;;;;;4804553;29;20324;-85
2021/05/26 00:49:38;;;;;;;2.10;0.70;;;8.20;93.20;;;;;;4805550;29;20061;-85
2021/05/26 00:52:05;;;;;;;1.42;0.55;;;8.10;93.20;;;;;;4807087;29;20055;-84
2021/05/26 00:54:34;;;;;;;2.00;0.63;;;8.10;93.40;;;;;;4798877;29;20648;-84
2021/05/26 00:57:04;;;;;;;3.03;0.60;;;8.00;93.50;;;;;;4803876;29;20058;-84
2021/05/26 00:59:31;;;;;;;2.92;0.80;;;7.90;93.70;;;;;;4804009;29;20389;-86
2021/05/26 01:02:00;;;;;;;1.38;0.57;;;7.80;93.90;;;;;;4803631;29;20071;-87
2021/05/26 01:04:30;;;;;;;1.48;0.57;;;7.80;94.10;;;;;;4816846;29;20295;-86
2021/05/26 01:07:06;;;;;;;3.28;0.47;;;7.80;94.30;;;;;;4811057;29;20279;-84
2021/05/26 01:09:33;;;;;;;0.80;0.35;;;7.90;94.60;;;;;;4789580;29;20111;-85
2021/05/26 01:12:03;;;;;;;2.22;0.60;;;7.90;94.60;;;;;;4805719;29;20069;-86
2021/05/26 01:14:31;;;;;;;0.60;0.43;;;7.90;94.60;;;;;;4806483;29;20055;-84
2021/05/26 01:17:00;;;;;;;3.50;0.70;;;8.00;94.40;;;;;;4813468;29;20054;-85
2021/05/26 01:19:29;;;;;;;0.93;0.55;;;8.00;94.30;;;;;;4783813;29;20408;-85
2021/05/26 01:21:57;;;;;;;0.98;0.47;;;8.10;94.10;;;;;;4821069;29;20074;-84
2021/05/26 01:24:30;;;;;;;1.23;0.60;;;8.10;93.80;;;;;;4784402;29;20047;-84
2021/05/26 01:27:02;;;;;;;1.20;0.40;;;8.10;93.50;;;;;;4806724;29;20054;-86
2021/05/26 01:29:33;;;;;;;1.20;0.55;;;8.10;93.30;;;;;;4785752;29;20055;-85
2021/05/26 01:32:01;;;;;;;1.50;0.80;;;8.20;93.50;;;;;;4800603;29;20055;-83
2021/05/26 01:34:39;;;;;;;2.65;0.68;;;8.20;93.30;;;;;;4810166;29;20040;-84
2021/05/26 01:37:08;;;;;;;1.13;0.50;;;8.30;93.40;;;;;;4795777;29;20067;-86
2021/05/26 01:39:35;;;;;;;0.82;0.30;;;8.30;93.60;;;;;;4801834;29;20312;-85
2021/05/26 01:42:08;;;;;;;2.45;0.60;;;8.30;93.60;;;;;;4801435;29;20267;-86
2021/05/26 01:44:37;;;;;;;2.10;0.77;;;8.40;93.80;;;;;;4798160;29;20054;-86
2021/05/26 01:47:30;;;;;;;3.35;0.52;;;8.50;93.70;;;;;;4816582;29;20075;-84
2021/05/26 01:49:57;;;;;;;1.15;0.57;;;8.50;93.80;;;;;;4808082;29;20058;-86
2021/05/26 01:52:25;;;;;;;1.88;0.70;;;8.50;93.80;;;;;;4796311;29;20082;-86
2021/05/26 01:54:52;;;;;;;1.50;0.60;;;8.60;94.00;;;;;;4793104;29;20378;-87
2021/05/26 01:57:19;;;;;;;2.85;0.70;;;8.60;93.80;;;;;;4811915;29;20074;-88
2021/05/26 01:59:49;;;;;;;6.63;0.73;;;8.60;93.80;;;;;;4803727;29;20043;-85
2021/05/26 02:02:20;;;;;;;5.03;0.65;;;8.70;93.60;;;;;;4805178;29;20135;-84
2021/05/26 02:04:51;;;;;;;1.88;0.57;;;8.70;93.80;;;;;;4811042;29;20235;-86
2021/05/26 02:07:19;;;;;;;1.35;0.52;;;8.70;93.40;;;;;;4798278;29;20108;-85
2021/05/26 02:09:51;;;;;;;4.55;0.50;;;8.70;93.00;;;;;;4803141;29;20053;-87
2021/05/26 02:12:21;;;;;;;2.17;0.60;;;8.70;93.10;;;;;;4802572;29;20158;-85
2021/05/26 02:14:51;;;;;;;1.25;0.55;;;8.70;93.00;;;;;;4795187;29;20126;-86
2021/05/26 02:17:20;;;;;;;1.97;1.00;;;8.70;93.30;;;;;;4803222;29;20065;-84
2021/05/26 02:19:49;;;;;;;1.75;0.68;;;8.70;93.40;;;;;;4792017;29;20658;-85
2021/05/26 02:22:16;;;;;;;0.90;0.60;;;8.70;93.40;;;;;;4801109;29;20066;-85
2021/05/26 02:24:47;;;;;;;1.73;0.50;;;8.70;93.50;;;;;;4782328;29;20272;-85
2021/05/26 02:27:17;;;;;;;4.28;1.02;;;8.70;93.40;;;;;;4790604;29;20127;-87
2021/05/26 02:29:44;;;;;;;2.38;0.55;;;8.70;93.40;;;;;;4812542;29;20066;-85
2021/05/26 02:32:12;;;;;;;3.05;0.80;;;8.70;93.40;;;;;;4805847;29;20250;-85
2021/05/26 02:34:44;;;;;;;2.35;0.63;;;8.80;93.70;;;;;;4797446;29;20342;-84
2021/05/26 02:37:13;;;;;;;2.83;0.70;;;8.80;93.40;;;;;;4796323;29;20096;-85
2021/05/26 02:39:43;;;;;;;0.80;0.50;;;8.80;93.40;;;;;;4798832;29;20107;-85
2021/05/26 02:42:14;;;;;;;0.65;0.47;;;8.80;93.30;;;;;;4796837;29;20177;-84
2021/05/26 02:44:44;;;;;;;2.35;0.68;;;8.80;93.10;;;;;;4816845;29;20047;-84
2021/05/26 02:47:12;;;;;;;1.90;0.80;;;8.80;93.20;;;;;;4777871;29;20163;-84
2021/05/26 02:49:42;;;;;;;0.90;0.40;;;8.80;93.10;;;;;;4808644;29;20456;-84
2021/05/26 02:52:12;;;;;;;1.25;0.45;;;8.80;93.10;;;;;;4805393;29;20288;-85
2021/05/26 02:54:40;;;;;;;3.72;0.73;;;8.80;93.00;;;;;;4801077;29;20045;-85
2021/05/26 02:57:14;;;;;;;2.90;0.60;;;8.80;93.30;;;;;;4813007;29;20206;-84
2021/05/26 03:00:05;;;;;;;2.72;0.55;;;8.80;93.40;;;;;;4806704;29;20050;-87
2021/05/26 03:02:47;;;;;;;3.13;0.57;;;8.80;93.20;;;;;;4781601;29;20046;-88
2021/05/26 03:05:16;;;;;;;2.30;0.50;;;8.80;92.90;;;;;;4802134;29;20071;-85
2021/05/26 03:07:47;;;;;;;1.50;0.50;;;8.80;93.00;;;;;;4811074;29;20046;-84
2021/05/26 03:10:17;;;;;;;1.13;0.73;;;8.90;93.20;;;;;;4804259;29;20071;-85
2021/05/26 03:12:46;;;;;;;2.33;0.70;;;9.00;93.20;;;;;;4810439;29;20054;-85
2021/05/26 03:15:19;;;;;;;4.20;1.17;;;8.90;93.00;;;;;;4802757;29;20042;-84
2021/05/26 03:17:48;;;;;;;1.58;0.63;;;9.00;93.10;;;;;;4817153;29;20059;-87
2021/05/26 03:20:19;;;;;;;2.92;0.65;;;8.80;92.90;;;;;;4812277;29;20063;-84
2021/05/26 03:22:46;;;;;;;1.70;0.60;;;8.90;93.20;;;;;;4804997;29;20074;-87
2021/05/26 03:25:36;;;;;;;3.10;0.68;;;9.00;93.40;;;;;;4802596;29;20058;-85
2021/05/26 03:28:11;;;;;;;4.43;0.98;;;9.00;93.40;;;;;;4811465;29;20362;-85
2021/05/26 03:30:40;;;;;;;1.48;0.60;;;9.10;93.50;;;;;;4802654;29;20061;-86
2021/05/26 03:33:11;;;;;;;4.07;0.75;;;9.20;93.40;;;;;;4795930;29;20126;-86
2021/05/26 03:35:38;;;;;;;3.05;0.90;;;9.20;93.50;;;;;;4795887;29;20087;-87
2021/05/26 03:38:06;;;;;;;2.95;0.98;;;9.20;93.20;;;;;;4816110;29;20051;-87
2021/05/26 03:40:42;;;;;;;1.42;0.57;;;9.20;93.20;;;;;;4791084;29;20050;-84
2021/05/26 03:43:09;;;;;;;1.95;0.60;;;9.20;93.00;;;;;;4812102;29;20059;-85
2021/05/26 03:45:43;;;;;;;4.38;0.65;;;9.20;93.00;;;;;;4803035;29;20059;-86
2021/05/26 03:48:15;;;;;;;1.90;0.63;;;9.20;93.10;;;;;;4789962;29;20574;-84
2021/05/26 03:50:45;;;;;;;2.10;0.68;;;9.20;92.80;;;;;;4811550;29;20055;-85
2021/05/26 03:53:15;;;;;;;12.90;1.20;;;9.10;92.60;;;;;;4811045;29;20059;-86
2021/05/26 03:55:44;;;;;;;2.20;0.80;;;9.10;92.50;;;;;;4803691;29;20063;-87
2021/05/26 03:58:30;;;;;;;2.25;0.75;;;9.10;92.80;;;;;;4804138;29;20181;-84
2021/05/26 04:01:07;;;;;;;1.55;0.88;;;9.00;92.60;;;;;;4802151;29;20119;-85
2021/05/26 04:03:37;;;;;;;4.45;1.20;;;9.10;92.90;;;;;;4802639;29;20062;-85
2021/05/26 04:06:04;;;;;;;3.60;0.70;;;9.10;92.80;;;;;;4801901;29;20039;-84
2021/05/26 04:08:31;;;;;;;4.70;0.75;;;9.10;93.10;;;;;;4820269;29;20081;-85
2021/05/26 04:11:00;;;;;;;2.85;0.80;;;9.10;93.00;;;;;;4790188;29;20073;-86
2021/05/26 04:13:38;;;;;;;3.42;0.73;;;9.20;93.20;;;;;;4817731;29;20051;-86
2021/05/26 04:16:20;;;;;;;4.10;0.70;;;9.20;93.00;;;;;;4808146;29;20063;-85
2021/05/26 04:18:59;;;;;;;3.75;1.00;;;9.20;92.90;;;;;;4821140;29;20228;-84
2021/05/26 04:21:26;;;;;;;3.45;0.85;;;9.20;93.00;;;;;;4807523;29;20226;-84
2021/05/26 04:23:55;;;;;;;1.33;0.68;;;9.30;93.00;;;;;;4791962;29;20581;-86
2021/05/26 04:26:23;;;;;;;1.08;0.70;;;9.60;93.10;;;;;;4821107;29;20079;-88
2021/05/26 04:28:52;;;;;;;3.97;1.00;;;9.70;92.10;;;;;;4808395;29;20054;-85
2021/05/26 04:31:21;;;;;;;3.05;1.00;;;9.70;91.90;;;;;;4809053;29;20062;-85
2021/05/26 04:33:49;;;;;;;3.45;1.20;;;9.80;91.90;;;;;;4794522;29;20133;-84
2021/05/26 04:36:16;;;;;;;1.55;0.80;;;9.80;91.90;;;;;;4813817;29;20063;-85
2021/05/26 04:38:44;;;;;;;2.10;0.70;;;9.70;91.70;;;;;;4792177;29;20063;-84
2021/05/26 04:41:11;;;;;;;3.15;1.00;;;9.60;92.00;;;;;;4799737;29;20059;-84
2021/05/26 04:43:38;;;;;;;2.17;0.82;;;9.60;92.60;;;;;;4808815;29;20146;-86
2021/05/26 04:46:05;;;;;;;2.63;1.05;;;9.60;92.60;;;;;;4823198;29;20269;-84
2021/05/26 04:48:33;;;;;;;2.65;1.23;;;9.60;92.50;;;;;;4809010;29;20043;-85
2021/05/26 04:51:03;;;;;;;2.55;1.08;;;9.70;92.70;;;;;;4808182;29;20060;-85
2021/05/26 04:53:30;;;;;;;4.25;0.90;;;9.70;92.30;;;;;;4806941;29;20054;-85
2021/05/26 04:55:57;;;;;;;3.95;1.10;;;9.60;92.20;;;;;;4805091;29;20246;-84
2021/05/26 04:58:24;;;;;;;2.25;1.10;;;9.70;92.60;;;;;;4818920;29;20405;-86
2021/05/26 05:00:54;;;;;;;8.45;1.08;;;9.70;92.60;;;;;;4803451;29;20057;-85
2021/05/26 05:03:21;;;;;;;3.30;1.02;;;9.70;92.40;;;;;;4805886;29;20055;-84
2021/05/26 05:05:51;;;;;;;2.65;1.40;;;9.60;91.80;;;;;;4801839;29;20096;-85
2021/05/26 05:08:18;;;;;;;2.70;1.47;;;9.60;92.10;;;;;;4797798;29;20077;-85
2021/05/26 05:10:48;;;;;;;2.85;1.20;;;9.70;92.90;;;;;;4806539;29;20054;-84
2021/05/26 05:13:14;;;;;;;4.35;1.20;;;9.70;92.20;;;;;;4790721;29;20066;-85
2021/05/26 05:15:42;;;;;;;3.00;1.20;;;9.80;92.10;;;;;;4798068;29;20047;-87
2021/05/26 05:18:09;;;;;;;3.03;1.58;;;9.80;92.20;;;;;;4784583;29;20349;-84
2021/05/26 05:20:36;;;;;;;4.82;1.10;;;9.90;92.40;;;;;;4791877;29;20061;-85
2021/05/26 05:23:04;;;;;;;4.32;1.20;;;10.10;92.30;;;;;;4806350;29;20055;-85
2021/05/26 05:25:38;;;;;;;3.50;1.13;;;10.10;91.50;;;;;;4805466;29;20058;-85
2021/05/26 05:28:06;;;;;;;2.97;1.00;;;10.00;91.00;;;;;;4804464;29;20112;-85
2021/05/26 05:30:33;;;;;;;1.65;0.73;;;9.80;91.00;;;;;;4806160;29;20063;-85
2021/05/26 05:33:00;;;;;;;4.65;0.90;;;9.80;90.60;;;;;;4765169;29;20058;-87
2021/05/26 05:35:29;;;;;;;2.65;0.95;;;9.90;90.70;;;;;;4785489;29;20078;-86
2021/05/26 05:37:58;;;;;;;3.92;0.88;;;9.90;90.70;;;;;;4798132;29;20054;-84
2021/05/26 05:40:26;;;;;;;3.83;1.58;;;10.00;91.00;;;;;;4802378;29;20071;-85
2021/05/26 05:42:53;;;;;;;2.47;0.75;;;10.00;91.00;;;;;;4784420;29;20059;-85
2021/05/26 05:45:20;;;;;;;1.75;0.70;;;10.10;91.00;;;;;;4806202;29;20120;-85
2021/05/26 05:47:47;;;;;;;3.90;1.10;;;10.00;90.50;;;;;;4798570;29;20122;-85
2021/05/26 05:50:16;;;;;;;2.67;1.25;;;10.00;90.50;;;;;;4798189;29;20112;-85
2021/05/26 05:52:43;;;;;;;1.35;1.00;;;10.10;90.90;;;;;;4804399;29;20066;-85
2021/05/26 05:55:17;;;;;;;2.10;1.02;;;10.00;90.90;;;;;;4806487;29;20054;-84
2021/05/26 05:57:45;;;;;;;4.90;0.90;;;10.00;90.60;;;;;;4804148;29;20066;-86
2021/05/26 06:00:13;;;;;;;3.63;0.98;;;10.00;91.30;;;;;;4803308;29;20055;-87
2021/05/26 06:02:45;;;;;;;4.43;1.33;;;10.10;91.20;;;;;;4769018;29;20594;-84
2021/05/26 06:05:16;;;;;;;3.08;0.95;;;10.10;90.60;;;;;;4794732;29;20088;-85
2021/05/26 06:07:43;;;;;;;3.00;1.00;;;10.10;90.50;;;;;;4794371;29;20062;-85
2021/05/26 06:10:13;;;;;;;3.88;0.85;;;10.10;90.80;;;;;;4805557;29;20054;-85
2021/05/26 06:12:40;;;;;;;4.68;1.20;;;10.10;90.70;;;;;;4800044;29;20063;-84
2021/05/26 06:15:10;;;;;;;3.97;1.45;;;10.10;90.80;;;;;;4804269;29;20053;-86
2021/05/26 06:17:38;;;;;;;8.55;1.30;;;10.10;90.30;;;;;;4802908;29;20099;-85
2021/05/26 06:20:14;;;;;;;5.60;1.35;;;10.10;90.30;;;;;;4782881;29;20413;-85
2021/05/26 06:22:47;;;;;;;3.33;1.05;;;10.20;90.90;;;;;;4805618;29;20051;-85
2021/05/26 06:25:16;;;;;;;4.75;1.42;;;10.20;90.60;;;;;;4804358;29;20059;-85
2021/05/26 06:27:43;;;;;;;4.90;1.70;;;10.10;90.00;;;;;;4804432;29;20099;-84
2021/05/26 06:30:14;;;;;;;2.28;1.05;;;10.10;90.20;;;;;;4802555;29;20304;-85
2021/05/26 06:32:44;;;;;;;5.63;1.35;;;10.10;90.80;;;;;;4804109;29;20062;-84
2021/05/26 06:35:15;;;;;;;2.13;1.08;;;10.20;90.70;;;;;;4779756;29;20353;-86
2021/05/26 06:37:42;;;;;;;2.90;1.10;;;10.30;90.60;;;;;;4804078;29;20070;-85
2021/05/26 06:40:10;;;;;;;5.93;1.55;;;10.30;90.20;;;;;;4807049;29;20109;-87
2021/05/26 06:42:37;;;;;;;7.10;1.30;;;10.40;90.40;;;;;;4804265;29;20357;-84
2021/05/26 06:45:06;;;;;;;7.93;1.27;;;10.30;89.60;;;;;;4818462;29;20043;-84
2021/05/26 06:47:35;;;;;;;2.67;1.15;;;10.40;90.00;;;;;;4801864;29;20139;-84
2021/05/26 06:50:06;;;;;;;4.68;1.17;;;10.30;89.80;;;;;;4804939;29;20050;-84
2021/05/26 06:52:33;;;;;;;3.53;1.33;;;10.40;90.20;;;;;;4801101;29;20082;-85
2021/05/26 06:55:00;;;;;;;3.83;1.95;;;10.40;90.20;;;;;;4818743;29;20047;-87
2021/05/26 06:57:27;;;;;;;3.45;1.10;;;10.40;89.90;;;;;;4802165;29;20051;-84
2021/05/26 06:59:54;;;;;;;3.78;1.30;;;10.60;90.00;;;;;;4811651;29;20063;-84
2021/05/26 07:02:21;;;;;;;3.85;1.38;;;10.70;89.40;;;;;;4800390;29;20345;-87
2021/05/26 07:04:49;;;;;;;5.22;1.85;;;10.70;89.70;;;;;;4786430;29;20107;-83
2021/05/26 07:07:16;;;;;;;2.53;1.27;;;10.60;90.30;;;;;;4803542;29;20054;-85
2021/05/26 07:09:43;;;;;;;4.30;1.25;;;10.60;90.00;;;;;;4801107;29;20429;-86
2021/05/26 07:12:10;;;;;;;4.72;2.00;;;10.60;90.00;;;;;;4787320;29;20055;-84
2021/05/26 07:14:39;;;;;;;2.85;1.08;;;10.50;89.10;;;;;;4781224;29;20078;-85
2021/05/26 07:17:09;;;;;;;3.70;1.30;;;10.50;90.10;;;;;;4802313;29;20067;-84
2021/05/26 07:19:36;;;;;;;5.07;1.33;;;10.50;89.90;;;;;;4803807;29;20099;-85
2021/05/26 07:22:04;;;;;;;5.47;1.20;;;10.60;90.00;;;;;;4801852;29;20095;-86
2021/05/26 07:24:31;;;;;;;5.80;1.40;;;10.70;89.90;;;;;;4787841;29;20055;-85
2021/05/26 07:26:58;;;;;;;3.30;1.15;;;10.90;89.30;;;;;;4803513;29;20058;-83
2021/05/26 07:29:26;;;;;;;3.50;0.93;;;11.10;88.40;;;;;;4788945;29;20106;-84
2021/05/26 07:31:54;;;;;;;3.08;0.98;;;11.10;87.40;;;;;;4786695;29;20050;-84
2021/05/26 07:34:21;;;;;;;4.13;0.70;;;11.00;88.00;;;;;;4805070;29;20373;-84
2021/05/26 07:36:48;;;;;;;3.25;1.20;;;10.90;86.60;;;;;;4806491;29;20066;-84
2021/05/26 07:39:16;;;;;;;3.42;1.30;;;10.60;87.60;;;;;;4802774;29;20065;-86
2021/05/26 07:41:47;;;;;;;5.30;1.50;;;10.70;89.00;;;;;;4804527;29;20054;-85
2021/05/26 07:44:17;;;;;;;6.45;1.33;;;10.70;89.50;;;;;;4803794;29;20077;-85
2021/05/26 07:46:44;;;;;;;3.85;1.65;;;10.70;89.40;;;;;;4803097;29;20069;-85
2021/05/26 07:49:11;;;;;;;4.28;1.20;;;10.70;89.60;;;;;;4805180;29;20055;-85
2021/05/26 07:51:44;;;;;;;5.40;2.22;;;10.70;88.60;;;;;;4804049;29;20342;-85
2021/05/26 07:54:11;;;;;;;5.05;1.60;;;10.70;89.40;;;;;;4801570;29;20086;-85
2021/05/26 07:56:39;;;;;;;1.88;1.05;;;10.80;89.30;;;;;;4788323;29;20043;-85
2021/05/26 07:59:06;;;;;;;5.03;1.10;;;10.70;88.80;;;;;;4796155;29;20063;-86
2021/05/26 08:01:33;;;;;;;2.78;0.98;;;10.80;88.20;;;;;;4801003;29;20043;-85
2021/05/26 08:04:00;;;;;;;2.70;0.98;;;11.00;86.30;;;;;;4803009;29;20118;-85
2021/05/26 08:06:29;;;;;;;2.72;0.95;;;11.00;87.10;;;;;;4781197;29;20138;-84
2021/05/26 08:08:57;;;;;;;3.35;1.30;;;10.80;87.70;;;;;;4805401;29;20046;-85
2021/05/26 08:11:26;;;;;;;8.68;2.13;;;10.80;88.20;;;;;;4803221;29;20067;-84
2021/05/26 08:13:57;;;;;;;5.80;1.65;;;10.90;88.00;;;;;;4804473;29;20073;-84
2021/05/26 08:16:25;;;;;;;6.18;1.30;;;10.90;88.60;;;;;;4804384;29;20233;-86
2021/05/26 08:18:52;;;;;;;3.95;1.35;;;11.00;88.20;;;;;;4801770;29;20199;-85
2021/05/26 08:21:20;;;;;;;4.88;1.35;;;11.10;88.20;;;;;;4802096;29;20058;-84
2021/05/26 08:23:47;;;;;;;6.15;1.63;;;11.10;87.90;;;;;;4804567;29;20051;-85
2021/05/26 08:26:21;;;;;;;5.97;1.35;;;11.20;87.60;;;;;;4805761;29;20100;-85
2021/05/26 08:28:48;;;;;;;1.48;0.80;;;11.40;87.00;;;;;;4805839;29;20306;-86
2021/05/26 08:31:17;;;;;;;4.72;1.33;;;11.40;86.80;;;;;;4788437;29;20284;-85
2021/05/26 08:33:44;;;;;;;2.50;0.88;;;11.50;86.80;;;;;;4799189;29;20122;-85
2021/05/26 08:36:11;;;;;;;6.35;1.08;;;11.70;86.70;;;;;;4804459;29;20064;-84
2021/05/26 08:38:38;;;;;;;2.90;0.98;;;11.80;85.50;;;;;;4803337;29;20059;-86
2021/05/26 08:41:06;;;;;;;5.57;0.98;;;11.90;85.40;;;;;;4804952;29;20050;-85
2021/05/26 08:43:35;;;;;;;4.80;1.05;;;11.80;84.50;;;;;;4805540;29;20043;-86
2021/05/26 08:46:04;;;;;;;2.40;0.80;;;11.70;85.90;;;;;;4803994;29;20358;-85
2021/05/26 08:48:33;;;;;;;2.00;0.80;;;12.10;84.70;;;;;;4804288;29;20054;-86
2021/05/26 08:51:07;;;;;;;3.67;0.77;;;12.40;84.40;;;;;;4802011;29;20338;-85
2021/05/26 08:53:36;;;;;;;8.32;1.15;;;12.30;83.50;;;;;;4793567;29;20372;-86
2021/05/26 08:56:06;;;;;;;2.85;0.85;;;12.00;85.40;;;;;;4795880;29;20268;-85
2021/05/26 08:58:40;;;;;;;2.13;0.95;;;12.20;85.50;;;;;;4801702;29;20067;-86
2021/05/26 09:01:10;;;;;;;3.55;1.27;;;12.20;84.40;;;;;;4799894;29;20049;-86
2021/05/26 09:03:52;;;;;;;2.33;1.10;;;12.20;84.80;;;;;;2657433;29;10002281;-88
2021/05/26 09:06:19;;;;;;;2.97;0.68;;;12.10;84.40;;;;;;3138084;30;10000952;-84
2021/05/26 09:08:48;;;;;;;1.95;0.98;;;11.90;84.80;;;;;;4787420;30;20079;-84
2021/05/26 09:11:15;;;;;;;3.28;1.42;;;12.00;84.00;;;;;;4789362;30;20055;-85
2021/05/26 09:13:44;;;;;;;2.40;0.75;;;11.80;84.60;;;;;;4789270;30;20059;-88
2021/05/26 09:16:27;;;;;;;5.15;1.00;;;11.70;85.40;;;;;;4788228;30;20051;-86
2021/05/26 09:19:05;;;;;;;2.67;1.10;;;11.80;84.40;;;;;;4790341;30;20092;-87
2021/05/26 09:21:36;;;;;;;4.22;1.35;;;11.70;85.00;;;;;;4790534;29;20122;-85
2021/05/26 09:24:29;;;;;;;3.00;0.75;;;11.60;85.20;;;;;;4790134;30;20060;-85
2021/05/26 09:26:59;;;;;;;2.72;1.00;;;11.60;84.90;;;;;;4789257;29;20068;-83
2021/05/26 09:29:28;;;;;;;3.85;1.50;;;11.50;86.00;;;;;;4789560;30;20073;-84
2021/05/26 09:32:11;;;;;;;4.97;1.20;;;11.50;85.70;;;;;;4786985;30;20079;-85
2021/05/26 09:34:41;;;;;;;6.38;1.60;;;11.50;85.80;;;;;;4786674;30;20062;-86
2021/05/26 09:37:13;;;;;;;6.65;1.38;;;11.50;85.50;;;;;;4787469;30;20119;-85
2021/05/26 09:39:50;;;;;;;5.30;0.95;;;11.40;85.80;;;;;;4790052;30;20058;-84
2021/05/26 09:42:34;;;;;;;5.60;1.77;;;11.40;86.20;;;;;;4787596;30;20065;-84
2021/05/26 09:45:16;;;;;;;5.82;1.80;;;11.40;85.10;;;;;;4786512;30;20067;-85
2021/05/26 09:47:45;;;;;;;5.68;2.33;;;11.30;85.00;;;;;;4789251;29;20364;-85
2021/05/26 09:50:21;;;;;;;3.92;1.10;;;11.30;85.70;;;;;;4786663;30;20148;-84
2021/05/26 09:53:03;;;;;;;3.63;1.23;;;11.60;85.70;;;;;;4782686;29;20047;-86
2021/05/26 09:55:37;;;;;;;7.63;1.02;;;12.00;85.00;;;;;;4787253;30;20168;-86
2021/05/26 09:58:06;;;;;;;7.72;1.50;;;12.30;84.10;;;;;;4789226;30;20417;-88
2021/05/26 10:00:35;;;;;;;3.42;1.13;;;12.80;82.00;;;;;;4783083;30;20052;-86
2021/05/26 10:03:15;;;;;;;3.05;1.10;;;13.20;80.70;;;;;;4777152;29;20052;-84
2021/05/26 10:05:47;;;;;;;1.75;0.80;;;13.20;79.60;;;;;;4810311;29;20057;-85
2021/05/26 10:08:34;;;;;;;3.05;1.00;;;13.40;79.80;;;;;;4798308;29;20054;-85
2021/05/26 10:11:32;;;;;;;2.88;1.10;;;13.40;80.50;;;;;;4805747;29;20096;-84
2021/05/26 10:14:03;;;;;;;2.67;0.95;;;13.10;80.30;;;;;;4793579;29;20126;-84
2021/05/26 10:16:32;;;;;;;1.60;0.70;;;13.10;80.50;;;;;;4803220;29;20080;-85
2021/05/26 10:19:02;;;;;;;2.53;1.13;;;13.00;80.90;;;;;;4798514;29;20082;-84
2021/05/26 10:21:31;;;;;;;4.75;1.30;;;12.90;80.80;;;;;;4795957;29;20334;-84
2021/05/26 10:24:00;;;;;;;1.42;0.63;;;12.80;81.80;;;;;;4801742;29;20093;-84
2021/05/26 10:26:54;;;;;;;5.18;1.08;;;12.70;81.50;;;;;;4799449;29;20058;-86
2021/05/26 10:29:36;;;;;;;3.17;1.20;;;12.60;81.80;;;;;;4779785;29;20166;-86
2021/05/26 10:32:04;;;;;;;1.90;0.88;;;12.60;82.10;;;;;;4802484;29;20059;-86
2021/05/26 10:35:03;;;;;;;1.20;0.38;;;12.80;80.90;;;;;;4798971;29;20055;-85
2021/05/26 10:37:37;;;;;;;3.60;0.60;;;12.60;80.30;;;;;;4800818;29;20059;-83
2021/05/26 10:40:36;;;;;;;4.60;1.17;;;12.60;80.10;;;;;;4802587;29;20059;-83
2021/05/26 10:43:32;;;;;;;7.25;1.50;;;12.60;81.60;;;;;;4795706;29;20180;-85
2021/05/26 10:46:03;;;;;;;2.22;0.80;;;12.80;81.60;;;;;;4817580;29;20365;-85
2021/05/26 10:49:04;;;;;;;3.10;0.70;;;12.70;82.30;;;;;;4815178;29;20051;-84
2021/05/26 10:52:06;;;;;;;1.67;0.50;;;12.90;83.30;;;;;;4802536;29;20059;-84
2021/05/26 10:54:58;;;;;;;0.93;0.55;;;13.10;82.30;;;;;;4780228;29;20131;-85
2021/05/26 10:57:26;;;;;;;2.85;0.63;;;13.10;82.10;;;;;;4784555;29;20066;-85
2021/05/26 11:00:20;;;;;;;2.30;0.90;;;13.30;83.20;;;;;;4801589;29;20062;-85
2021/05/26 11:03:22;;;;;;;2.30;0.63;;;13.00;81.50;;;;;;4799598;29;20343;-84
2021/05/26 11:05:48;;;;;;;3.40;0.90;;;13.10;83.40;;;;;;4793609;29;20071;-83
2021/05/26 11:08:34;;;;;;;3.38;0.50;;;13.70;81.10;;;;;;4802582;29;20066;-85
2021/05/26 11:11:44;;;;;;;4.85;1.10;;;13.80;79.90;;;;;;4812688;29;20085;-85
2021/05/26 11:14:41;;;;;;;1.55;0.75;;;14.10;78.50;;;;;;4812654;29;20063;-89
2021/05/26 11:17:29;;;;;;;3.47;0.60;;;14.10;78.50;;;;;;4793648;29;20338;-83
2021/05/26 11:20:16;;;;;;;1.80;0.73;;;14.30;77.30;;;;;;4798126;29;20114;-88
2021/05/26 11:22:44;;;;;;;3.60;1.60;;;14.10;79.30;;;;;;4795742;29;20055;-83
2021/05/26 11:25:13;;;;;;;2.33;0.68;;;13.90;78.80;;;;;;4803769;29;20386;-85
2021/05/26 11:27:55;;;;;;;2.33;0.93;;;14.20;78.90;;;;;;4804591;29;20073;-83
2021/05/26 11:30:26;;;;;;;1.45;0.60;;;14.10;78.20;;;;;;4818467;29;20057;-85
2021/05/26 11:33:01;;;;;;;4.03;0.75;;;14.10;80.00;;;;;;4794969;29;20059;-85
2021/05/26 11:35:30;;;;;;;2.45;0.45;;;13.70;80.30;;;;;;4804063;29;20052;-84
2021/05/26 11:37:57;;;;;;;1.83;0.52;;;13.80;80.50;;;;;;4775757;29;20089;-85
2021/05/26 11:40:28;;;;;;;1.10;0.50;;;13.50;80.20;;;;;;4798366;29;20066;-84
2021/05/26 11:42:56;;;;;;;;;;;13.30;82.10;;;;;;4798074;29;20061;-84
2021/05/26 11:45:26;;;;;;;7.10;0.90;;;13.00;84.10;;;;;;4798814;29;19921;-84
2021/05/26 11:47:58;;;;;;;2.38;0.90;;;12.70;86.70;;;;;;4801810;29;20130;-87
2021/05/26 11:50:30;;;;;;;1.05;0.50;;;12.60;86.30;;;;;;4802482;29;20093;-83
2021/05/26 11:53:16;;;;;;;4.75;0.60;;;12.70;85.80;;;;;;4806138;29;20051;-84
2021/05/26 11:55:50;;;;;;;2.17;0.70;;;12.70;85.20;;;;;;4791516;29;20137;-84
2021/05/26 11:58:36;;;;;;;1.45;0.75;;;12.70;84.80;;;;;;4786711;29;20062;-85
2021/05/26 12:01:05;;;;;;;2.42;1.00;;;12.70;84.90;;;;;;4801307;29;20179;-85
2021/05/26 12:03:33;;;;;;;2.45;0.90;;;12.60;84.40;;;;;;4795822;29;20160;-84
2021/05/26 12:06:07;;;;;;;2.15;0.68;;;12.60;85.70;;;;;;4801182;29;20230;-82
2021/05/26 12:08:41;;;;;;;3.40;1.00;;;12.70;84.70;;;;;;4796126;29;20069;-84
2021/05/26 12:11:11;;;;;;;2.20;0.82;;;12.60;85.30;;;;;;4812853;29;20237;-84
2021/05/26 12:13:41;;;;;;;4.47;1.00;;;12.70;85.40;;;;;;4792607;29;20059;-82
2021/05/26 12:16:13;;;;;;;3.92;0.88;;;12.80;85.40;;;;;;4794337;29;20093;-85
2021/05/26 12:18:49;;;;;;;1.98;0.80;;;12.90;85.10;;;;;;4791978;29;20380;-84
2021/05/26 12:21:17;;;;;;;3.72;1.00;;;12.90;85.20;;;;;;4808804;29;20122;-83
2021/05/26 12:23:47;;;;;;;3.55;0.60;;;13.00;84.70;;;;;;4799829;29;20090;-83
2021/05/26 12:26:21;;;;;;;;;;;13.10;83.90;;;;;;4814903;29;20090;-82
2021/05/26 12:28:52;;;;;;;1.13;0.30;;;13.10;82.70;;;;;;4798992;29;19921;-83
2021/05/26 12:31:20;;;;;;;2.20;0.30;;;13.20;82.20;;;;;;4796350;29;20066;-84
2021/05/26 12:33:50;;;;;;;0.43;0.20;;;13.30;81.20;;;;;;4801028;29;20204;-82
2021/05/26 12:36:17;;;;;;;1.23;0.40;;;13.90;80.60;;;;;;4800688;29;20061;-82
2021/05/26 12:38:45;;;;;;;2.47;0.60;;;13.90;80.40;;;;;;4801543;29;20099;-83
2021/05/26 12:41:24;;;;;;;0.88;0.40;;;14.20;78.80;;;;;;4801099;29;20130;-83
2021/05/26 12:43:55;;;;;;;0.80;0.50;;;14.10;78.50;;;;;;4802899;29;20054;-83
2021/05/26 12:46:43;;;;;;;1.65;0.50;;;13.90;79.40;;;;;;4814417;29;20305;-83
2021/05/26 12:49:33;;;;;;;;;;;13.90;80.60;;;;;;4804919;29;20090;-84
2021/05/26 12:52:02;;;;;;;0.60;0.30;;;14.10;79.60;;;;;;4797917;29;19921;-83
2021/05/26 12:54:41;;;;;;;0.20;0.10;;;14.00;80.30;;;;;;4818075;29;20046;-86
2021/05/26 12:57:13;;;;;;;0.88;0.35;;;13.70;80.20;;;;;;4820670;29;20120;-83
2021/05/26 12:59:42;;;;;;;1.13;0.43;;;13.90;80.10;;;;;;4807608;29;20059;-82
2021/05/26 13:02:10;;;;;;;0.88;0.30;;;13.90;82.10;;;;;;4801814;29;20070;-85
2021/05/26 13:04:46;;;;;;;1.00;0.30;;;13.70;82.50;;;;;;4802081;29;20081;-84
2021/05/26 13:07:29;;;;;;;0.30;0.20;;;13.40;84.00;;;;;;4805548;29;20349;-82
2021/05/26 13:09:57;;;;;;;2.58;0.60;;;13.00;84.60;;;;;;4805589;29;20094;-81
2021/05/26 13:12:35;;;;;;;1.05;0.30;;;12.90;86.50;;;;;;4798481;29;20369;-82
2021/05/26 13:15:28;;;;;;;0.20;0.20;;;12.70;87.00;;;;;;4782467;29;20059;-82